Kware, Nigeria
Current Conditions -  °F | °C
As of 5:00 PM on Tuesday 21 Oct 2014 (Local Time) from DRRN Reporting Station
Clear Clear  
Wind Chill: 100°   Ceiling: Unl
Heat Index: 100°   Visibility: 4mi
Dew Point: 25°   Wind: 17mph
Humidity: 7%   Direction: 40°NE
Pressure: 29.83"   Gusts: NA
Location:  13.21°N, 5.27°E
Report Text: DRRN 211600Z 04015KT 7000 NSC 38/M04 Q1010 TEMPO 4000 BLDU
Loading
Personal Weather Stations






























Interactive Weather Map
Tropical Storm Tracking
New forecast layout! Learn more

10-Day Weather Forecast

Advertisements
Track Severe Weather on mobile